sensor_id;sensor_type;location;lat;lon;timestamp;P1;durP1;ratioP1;P2;durP2;ratioP2
45232;SDS011;30969;51.052;17.056;2022-12-24T00:04:17;12.63;;;7.68;;
45232;SDS011;30969;51.052;17.056;2022-12-24T00:09:20;8.95;;;6.57;;
45232;SDS011;30969;51.052;17.056;2022-12-24T00:14:24;14.90;;;8.43;;
45232;SDS011;30969;51.052;17.056;2022-12-24T00:19:29;12.80;;;7.35;;
45232;SDS011;30969;51.052;17.056;2022-12-24T00:24:33;13.95;;;8.32;;
45232;SDS011;30969;51.052;17.056;2022-12-24T00:29:36;12.93;;;7.85;;
45232;SDS011;30969;51.052;17.056;2022-12-24T00:34:41;10.55;;;6.47;;
45232;SDS011;30969;51.052;17.056;2022-12-24T00:39:45;10.77;;;6.80;;
45232;SDS011;30969;51.052;17.056;2022-12-24T00:44:48;10.65;;;6.65;;
45232;SDS011;30969;51.052;17.056;2022-12-24T00:49:53;10.27;;;6.68;;
45232;SDS011;30969;51.052;17.056;2022-12-24T00:54:56;11.77;;;7.90;;
45232;SDS011;30969;51.052;17.056;2022-12-24T01:00:00;13.43;;;7.43;;
45232;SDS011;30969;51.052;17.056;2022-12-24T01:05:05;11.75;;;7.25;;
45232;SDS011;30969;51.052;17.056;2022-12-24T01:10:12;10.38;;;6.35;;
45232;SDS011;30969;51.052;17.056;2022-12-24T01:15:17;10.48;;;6.75;;
45232;SDS011;30969;51.052;17.056;2022-12-24T01:20:22;11.90;;;7.47;;
45232;SDS011;30969;51.052;17.056;2022-12-24T01:25:28;13.15;;;8.60;;
45232;SDS011;30969;51.052;17.056;2022-12-24T01:30:31;14.05;;;8.70;;
45232;SDS011;30969;51.052;17.056;2022-12-24T01:35:39;14.13;;;10.13;;
45232;SDS011;30969;51.052;17.056;2022-12-24T01:40:42;16.95;;;9.98;;
45232;SDS011;30969;51.052;17.056;2022-12-24T01:46:03;15.88;;;9.77;;
45232;SDS011;30969;51.052;17.056;2022-12-24T01:51:14;17.38;;;9.00;;
45232;SDS011;30969;51.052;17.056;2022-12-24T01:56:21;13.55;;;8.45;;
45232;SDS011;30969;51.052;17.056;2022-12-24T02:01:26;14.25;;;8.63;;
45232;SDS011;30969;51.052;17.056;2022-12-24T02:06:31;12.55;;;7.68;;
45232;SDS011;30969;51.052;17.056;2022-12-24T02:11:35;16.05;;;10.18;;
45232;SDS011;30969;51.052;17.056;2022-12-24T02:16:43;16.85;;;9.90;;
45232;SDS011;30969;51.052;17.056;2022-12-24T02:21:56;12.25;;;8.05;;
45232;SDS011;30969;51.052;17.056;2022-12-24T02:27:10;14.65;;;8.80;;
45232;SDS011;30969;51.052;17.056;2022-12-24T02:32:23;14.00;;;7.97;;
45232;SDS011;30969;51.052;17.056;2022-12-24T02:37:33;11.20;;;7.13;;
45232;SDS011;30969;51.052;17.056;2022-12-24T02:42:41;13.30;;;8.15;;
45232;SDS011;30969;51.052;17.056;2022-12-24T02:47:49;12.65;;;7.82;;
45232;SDS011;30969;51.052;17.056;2022-12-24T02:52:54;10.98;;;6.63;;
45232;SDS011;30969;51.052;17.056;2022-12-24T02:58:05;12.40;;;7.55;;
45232;SDS011;30969;51.052;17.056;2022-12-24T03:03:29;10.52;;;6.75;;
45232;SDS011;30969;51.052;17.056;2022-12-24T03:08:41;9.73;;;5.60;;
45232;SDS011;30969;51.052;17.056;2022-12-24T03:13:50;10.25;;;5.35;;
45232;SDS011;30969;51.052;17.056;2022-12-24T03:18:58;10.35;;;5.43;;
45232;SDS011;30969;51.052;17.056;2022-12-24T03:24:02;8.23;;;5.18;;
45232;SDS011;30969;51.052;17.056;2022-12-24T03:29:06;7.43;;;4.70;;
45232;SDS011;30969;51.052;17.056;2022-12-24T03:34:12;5.97;;;4.03;;
45232;SDS011;30969;51.052;17.056;2022-12-24T03:39:16;6.78;;;3.67;;
45232;SDS011;30969;51.052;17.056;2022-12-24T03:44:20;6.82;;;3.67;;
45232;SDS011;30969;51.052;17.056;2022-12-24T03:49:24;5.15;;;2.80;;
45232;SDS011;30969;51.052;17.056;2022-12-24T03:54:28;6.60;;;3.10;;
45232;SDS011;30969;51.052;17.056;2022-12-24T03:59:32;3.13;;;1.90;;
45232;SDS011;30969;51.052;17.056;2022-12-24T04:04:36;3.25;;;1.60;;
45232;SDS011;30969;51.052;17.056;2022-12-24T04:09:40;2.40;;;1.67;;
45232;SDS011;30969;51.052;17.056;2022-12-24T04:14:43;2.67;;;1.63;;
45232;SDS011;30969;51.052;17.056;2022-12-24T04:19:48;6.05;;;2.30;;
45232;SDS011;30969;51.052;17.056;2022-12-24T04:24:52;5.50;;;2.35;;
45232;SDS011;30969;51.052;17.056;2022-12-24T04:29:55;5.28;;;2.60;;
45232;SDS011;30969;51.052;17.056;2022-12-24T04:35:01;3.38;;;2.35;;
45232;SDS011;30969;51.052;17.056;2022-12-24T04:40:05;5.25;;;3.38;;
45232;SDS011;30969;51.052;17.056;2022-12-24T04:45:10;7.50;;;5.10;;
45232;SDS011;30969;51.052;17.056;2022-12-24T04:50:15;6.88;;;4.20;;
45232;SDS011;30969;51.052;17.056;2022-12-24T04:55:18;7.95;;;3.85;;
45232;SDS011;30969;51.052;17.056;2022-12-24T05:00:22;5.10;;;3.17;;
45232;SDS011;30969;51.052;17.056;2022-12-24T05:05:27;5.70;;;3.17;;
45232;SDS011;30969;51.052;17.056;2022-12-24T05:10:31;4.20;;;2.55;;
45232;SDS011;30969;51.052;17.056;2022-12-24T05:15:34;4.60;;;2.25;;
45232;SDS011;30969;51.052;17.056;2022-12-24T05:20:40;6.78;;;2.60;;
45232;SDS011;30969;51.052;17.056;2022-12-24T05:25:44;4.22;;;2.00;;
45232;SDS011;30969;51.052;17.056;2022-12-24T05:31:06;4.13;;;2.25;;
45232;SDS011;30969;51.052;17.056;2022-12-24T05:36:11;7.45;;;2.60;;
45232;SDS011;30969;51.052;17.056;2022-12-24T05:41:15;3.67;;;2.38;;
45232;SDS011;30969;51.052;17.056;2022-12-24T05:46:20;5.25;;;1.92;;
45232;SDS011;30969;51.052;17.056;2022-12-24T05:51:26;7.28;;;2.25;;
45232;SDS011;30969;51.052;17.056;2022-12-24T05:56:29;5.78;;;2.35;;
45232;SDS011;30969;51.052;17.056;2022-12-24T06:01:32;4.43;;;1.95;;
45232;SDS011;30969;51.052;17.056;2022-12-24T06:06:37;6.63;;;2.20;;
45232;SDS011;30969;51.052;17.056;2022-12-24T06:11:41;4.75;;;1.90;;
45232;SDS011;30969;51.052;17.056;2022-12-24T06:16:45;5.30;;;1.88;;
45232;SDS011;30969;51.052;17.056;2022-12-24T06:21:50;6.15;;;1.65;;
45232;SDS011;30969;51.052;17.056;2022-12-24T06:26:53;5.15;;;1.73;;
45232;SDS011;30969;51.052;17.056;2022-12-24T06:31:57;3.30;;;1.90;;
45232;SDS011;30969;51.052;17.056;2022-12-24T06:37:02;5.43;;;1.88;;
45232;SDS011;30969;51.052;17.056;2022-12-24T06:42:05;3.50;;;1.60;;
45232;SDS011;30969;51.052;17.056;2022-12-24T06:47:09;6.40;;;2.17;;
45232;SDS011;30969;51.052;17.056;2022-12-24T06:52:14;4.63;;;1.88;;
45232;SDS011;30969;51.052;17.056;2022-12-24T06:57:17;5.13;;;2.35;;
45232;SDS011;30969;51.052;17.056;2022-12-24T07:02:21;4.25;;;2.30;;
45232;SDS011;30969;51.052;17.056;2022-12-24T07:07:26;4.07;;;1.80;;
45232;SDS011;30969;51.052;17.056;2022-12-24T07:12:29;4.38;;;2.10;;
45232;SDS011;30969;51.052;17.056;2022-12-24T07:17:33;3.22;;;1.50;;
45232;SDS011;30969;51.052;17.056;2022-12-24T07:22:38;2.95;;;1.40;;
45232;SDS011;30969;51.052;17.056;2022-12-24T07:27:42;5.78;;;2.50;;
45232;SDS011;30969;51.052;17.056;2022-12-24T07:32:46;8.00;;;2.47;;
45232;SDS011;30969;51.052;17.056;2022-12-24T07:37:51;4.45;;;2.58;;
45232;SDS011;30969;51.052;17.056;2022-12-24T07:42:54;6.57;;;2.30;;
45232;SDS011;30969;51.052;17.056;2022-12-24T07:47:57;3.13;;;1.73;;
45232;SDS011;30969;51.052;17.056;2022-12-24T07:53:02;5.40;;;2.50;;
45232;SDS011;30969;51.052;17.056;2022-12-24T07:58:06;4.22;;;1.98;;
45232;SDS011;30969;51.052;17.056;2022-12-24T08:03:10;2.25;;;1.40;;
45232;SDS011;30969;51.052;17.056;2022-12-24T08:08:20;2.47;;;1.90;;
45232;SDS011;30969;51.052;17.056;2022-12-24T08:13:23;4.70;;;1.90;;
45232;SDS011;30969;51.052;17.056;2022-12-24T08:18:27;2.78;;;1.90;;
45232;SDS011;30969;51.052;17.056;2022-12-24T08:23:32;4.30;;;2.35;;
45232;SDS011;30969;51.052;17.056;2022-12-24T08:28:35;2.38;;;1.77;;
45232;SDS011;30969;51.052;17.056;2022-12-24T08:33:39;3.50;;;2.70;;
45232;SDS011;30969;51.052;17.056;2022-12-24T08:38:44;3.85;;;2.90;;
45232;SDS011;30969;51.052;17.056;2022-12-24T08:43:47;5.03;;;3.90;;
45232;SDS011;30969;51.052;17.056;2022-12-24T08:48:51;7.57;;;4.43;;
45232;SDS011;30969;51.052;17.056;2022-12-24T08:53:56;6.35;;;4.40;;
45232;SDS011;30969;51.052;17.056;2022-12-24T08:58:59;6.38;;;4.95;;
45232;SDS011;30969;51.052;17.056;2022-12-24T09:04:03;7.80;;;6.15;;
45232;SDS011;30969;51.052;17.056;2022-12-24T09:09:08;8.88;;;6.75;;
45232;SDS011;30969;51.052;17.056;2022-12-24T09:14:11;10.30;;;6.55;;
45232;SDS011;30969;51.052;17.056;2022-12-24T09:19:15;8.90;;;6.60;;
45232;SDS011;30969;51.052;17.056;2022-12-24T09:24:20;10.43;;;6.97;;
45232;SDS011;30969;51.052;17.056;2022-12-24T09:29:24;10.00;;;7.45;;
45232;SDS011;30969;51.052;17.056;2022-12-24T09:34:28;9.45;;;6.50;;
45232;SDS011;30969;51.052;17.056;2022-12-24T09:39:33;9.48;;;6.60;;
45232;SDS011;30969;51.052;17.056;2022-12-24T09:44:37;11.30;;;7.32;;
45232;SDS011;30969;51.052;17.056;2022-12-24T09:49:46;9.48;;;7.22;;
45232;SDS011;30969;51.052;17.056;2022-12-24T09:54:56;9.60;;;6.80;;
45232;SDS011;30969;51.052;17.056;2022-12-24T10:00:04;8.95;;;6.60;;
45232;SDS011;30969;51.052;17.056;2022-12-24T10:05:21;9.30;;;6.88;;
45232;SDS011;30969;51.052;17.056;2022-12-24T10:10:34;10.07;;;6.35;;
45232;SDS011;30969;51.052;17.056;2022-12-24T10:15:42;8.50;;;6.63;;
45232;SDS011;30969;51.052;17.056;2022-12-24T10:20:56;10.45;;;7.20;;
45232;SDS011;30969;51.052;17.056;2022-12-24T10:26:10;8.18;;;6.43;;
45232;SDS011;30969;51.052;17.056;2022-12-24T10:31:18;10.75;;;7.45;;
45232;SDS011;30969;51.052;17.056;2022-12-24T10:36:26;9.10;;;7.07;;
45232;SDS011;30969;51.052;17.056;2022-12-24T10:41:32;11.18;;;6.82;;
45232;SDS011;30969;51.052;17.056;2022-12-24T10:46:37;10.45;;;7.30;;
45232;SDS011;30969;51.052;17.056;2022-12-24T10:51:43;10.65;;;7.80;;
45232;SDS011;30969;51.052;17.056;2022-12-24T10:56:51;8.90;;;6.80;;
45232;SDS011;30969;51.052;17.056;2022-12-24T11:01:59;9.98;;;7.35;;
45232;SDS011;30969;51.052;17.056;2022-12-24T11:07:04;10.13;;;6.78;;
45232;SDS011;30969;51.052;17.056;2022-12-24T11:12:21;9.82;;;6.30;;
45232;SDS011;30969;51.052;17.056;2022-12-24T11:17:31;8.70;;;5.82;;
45232;SDS011;30969;51.052;17.056;2022-12-24T11:22:35;8.45;;;5.70;;
45232;SDS011;30969;51.052;17.056;2022-12-24T11:27:41;8.48;;;4.80;;
45232;SDS011;30969;51.052;17.056;2022-12-24T11:32:48;10.40;;;5.50;;
45232;SDS011;30969;51.052;17.056;2022-12-24T11:38:08;8.65;;;5.40;;
45232;SDS011;30969;51.052;17.056;2022-12-24T11:43:14;7.97;;;5.10;;
45232;SDS011;30969;51.052;17.056;2022-12-24T11:48:23;8.52;;;5.45;;
45232;SDS011;30969;51.052;17.056;2022-12-24T11:53:30;11.68;;;7.22;;
45232;SDS011;30969;51.052;17.056;2022-12-24T11:58:40;11.52;;;6.03;;
45232;SDS011;30969;51.052;17.056;2022-12-24T12:03:48;9.32;;;5.82;;
45232;SDS011;30969;51.052;17.056;2022-12-24T12:08:56;9.90;;;5.95;;
45232;SDS011;30969;51.052;17.056;2022-12-24T12:14:04;10.75;;;6.18;;
45232;SDS011;30969;51.052;17.056;2022-12-24T12:19:12;14.13;;;5.93;;
45232;SDS011;30969;51.052;17.056;2022-12-24T12:24:18;13.98;;;4.80;;
45232;SDS011;30969;51.052;17.056;2022-12-24T12:29:34;15.05;;;5.60;;
45232;SDS011;30969;51.052;17.056;2022-12-24T12:34:45;11.93;;;4.65;;
45232;SDS011;30969;51.052;17.056;2022-12-24T12:39:58;12.27;;;4.95;;
45232;SDS011;30969;51.052;17.056;2022-12-24T12:45:08;13.93;;;4.55;;
45232;SDS011;30969;51.052;17.056;2022-12-24T12:50:28;11.57;;;4.18;;
45232;SDS011;30969;51.052;17.056;2022-12-24T12:55:39;13.98;;;4.35;;
45232;SDS011;30969;51.052;17.056;2022-12-24T13:00:50;8.35;;;3.60;;
45232;SDS011;30969;51.052;17.056;2022-12-24T13:06:05;12.45;;;3.88;;
45232;SDS011;30969;51.052;17.056;2022-12-24T13:11:32;10.50;;;3.60;;
45232;SDS011;30969;51.052;17.056;2022-12-24T13:16:53;11.98;;;3.90;;
45232;SDS011;30969;51.052;17.056;2022-12-24T13:22:16;9.43;;;2.83;;
45232;SDS011;30969;51.052;17.056;2022-12-24T13:27:23;10.52;;;3.90;;
45232;SDS011;30969;51.052;17.056;2022-12-24T13:44:00;10.45;;;3.40;;
45232;SDS011;30969;51.052;17.056;2022-12-24T13:49:11;7.20;;;3.30;;
45232;SDS011;30969;51.052;17.056;2022-12-24T13:54:21;17.08;;;4.00;;
45232;SDS011;30969;51.052;17.056;2022-12-24T13:59:32;18.35;;;4.43;;
45232;SDS011;30969;51.052;17.056;2022-12-24T14:04:41;16.70;;;3.80;;
45232;SDS011;30969;51.052;17.056;2022-12-24T14:09:46;12.63;;;3.80;;
45232;SDS011;30969;51.052;17.056;2022-12-24T14:14:53;8.52;;;2.83;;
45232;SDS011;30969;51.052;17.056;2022-12-24T14:19:58;12.43;;;3.85;;
45232;SDS011;30969;51.052;17.056;2022-12-24T14:25:08;7.85;;;3.35;;
45232;SDS011;30969;51.052;17.056;2022-12-24T14:30:18;9.88;;;3.38;;
45232;SDS011;30969;51.052;17.056;2022-12-24T14:35:25;9.52;;;3.60;;
45232;SDS011;30969;51.052;17.056;2022-12-24T14:40:32;10.70;;;3.72;;
45232;SDS011;30969;51.052;17.056;2022-12-24T14:45:40;9.30;;;3.55;;
45232;SDS011;30969;51.052;17.056;2022-12-24T14:50:58;11.30;;;4.03;;
45232;SDS011;30969;51.052;17.056;2022-12-24T14:56:09;10.23;;;3.42;;
45232;SDS011;30969;51.052;17.056;2022-12-24T15:01:20;11.15;;;3.78;;
45232;SDS011;30969;51.052;17.056;2022-12-24T15:06:27;11.75;;;5.18;;
45232;SDS011;30969;51.052;17.056;2022-12-24T15:11:33;15.25;;;4.50;;
45232;SDS011;30969;51.052;17.056;2022-12-24T15:16:37;9.93;;;4.57;;
45232;SDS011;30969;51.052;17.056;2022-12-24T15:21:43;13.95;;;5.50;;
45232;SDS011;30969;51.052;17.056;2022-12-24T15:26:46;11.13;;;5.90;;
45232;SDS011;30969;51.052;17.056;2022-12-24T15:31:53;11.25;;;4.75;;
45232;SDS011;30969;51.052;17.056;2022-12-24T15:37:04;19.20;;;5.65;;
45232;SDS011;30969;51.052;17.056;2022-12-24T15:42:16;15.02;;;5.35;;
45232;SDS011;30969;51.052;17.056;2022-12-24T15:47:25;16.60;;;6.18;;
45232;SDS011;30969;51.052;17.056;2022-12-24T15:52:36;14.80;;;6.57;;
45232;SDS011;30969;51.052;17.056;2022-12-24T15:57:42;17.95;;;6.97;;
45232;SDS011;30969;51.052;17.056;2022-12-24T16:02:45;17.33;;;7.88;;
45232;SDS011;30969;51.052;17.056;2022-12-24T16:07:59;15.57;;;7.75;;
45232;SDS011;30969;51.052;17.056;2022-12-24T16:13:11;16.48;;;6.80;;
45232;SDS011;30969;51.052;17.056;2022-12-24T16:18:19;19.27;;;6.88;;
45232;SDS011;30969;51.052;17.056;2022-12-24T16:23:28;15.25;;;6.25;;
45232;SDS011;30969;51.052;17.056;2022-12-24T16:28:36;18.85;;;6.28;;
45232;SDS011;30969;51.052;17.056;2022-12-24T16:33:40;15.93;;;6.43;;
45232;SDS011;30969;51.052;17.056;2022-12-24T16:38:46;15.40;;;6.40;;
45232;SDS011;30969;51.052;17.056;2022-12-24T16:44:07;14.95;;;6.25;;
45232;SDS011;30969;51.052;17.056;2022-12-24T16:49:11;14.73;;;5.80;;
45232;SDS011;30969;51.052;17.056;2022-12-24T16:54:20;14.15;;;5.63;;
45232;SDS011;30969;51.052;17.056;2022-12-24T16:59:23;15.07;;;7.53;;
45232;SDS011;30969;51.052;17.056;2022-12-24T17:04:27;19.70;;;8.43;;
45232;SDS011;30969;51.052;17.056;2022-12-24T17:09:34;18.92;;;8.00;;
45232;SDS011;30969;51.052;17.056;2022-12-24T17:14:38;21.90;;;8.13;;
45232;SDS011;30969;51.052;17.056;2022-12-24T17:19:43;19.65;;;7.85;;
45232;SDS011;30969;51.052;17.056;2022-12-24T17:24:47;23.15;;;8.57;;
45232;SDS011;30969;51.052;17.056;2022-12-24T17:29:51;19.92;;;8.60;;
45232;SDS011;30969;51.052;17.056;2022-12-24T17:34:55;17.23;;;8.55;;
45232;SDS011;30969;51.052;17.056;2022-12-24T17:40:02;20.25;;;8.82;;
45232;SDS011;30969;51.052;17.056;2022-12-24T17:45:06;23.67;;;8.75;;
45232;SDS011;30969;51.052;17.056;2022-12-24T17:50:10;18.35;;;8.65;;
45232;SDS011;30969;51.052;17.056;2022-12-24T17:55:15;14.20;;;6.40;;
45232;SDS011;30969;51.052;17.056;2022-12-24T18:00:19;13.40;;;6.05;;
45232;SDS011;30969;51.052;17.056;2022-12-24T18:05:26;13.85;;;5.72;;
45232;SDS011;30969;51.052;17.056;2022-12-24T18:10:31;16.15;;;6.38;;
45232;SDS011;30969;51.052;17.056;2022-12-24T18:15:34;14.75;;;5.80;;
45232;SDS011;30969;51.052;17.056;2022-12-24T18:20:39;15.60;;;5.97;;
45232;SDS011;30969;51.052;17.056;2022-12-24T18:25:49;12.50;;;6.25;;
45232;SDS011;30969;51.052;17.056;2022-12-24T18:30:55;13.50;;;6.00;;
45232;SDS011;30969;51.052;17.056;2022-12-24T18:36:00;20.67;;;7.60;;
45232;SDS011;30969;51.052;17.056;2022-12-24T18:41:05;21.42;;;8.57;;
45232;SDS011;30969;51.052;17.056;2022-12-24T18:46:11;20.30;;;8.50;;
45232;SDS011;30969;51.052;17.056;2022-12-24T18:51:17;16.67;;;7.30;;
45232;SDS011;30969;51.052;17.056;2022-12-24T18:56:24;16.63;;;7.93;;
45232;SDS011;30969;51.052;17.056;2022-12-24T19:01:28;13.63;;;7.28;;
45232;SDS011;30969;51.052;17.056;2022-12-24T19:06:33;16.05;;;6.65;;
45232;SDS011;30969;51.052;17.056;2022-12-24T19:11:38;12.63;;;6.35;;
45232;SDS011;30969;51.052;17.056;2022-12-24T19:16:42;17.23;;;7.22;;
45232;SDS011;30969;51.052;17.056;2022-12-24T19:21:46;18.15;;;7.80;;
45232;SDS011;30969;51.052;17.056;2022-12-24T19:26:50;19.85;;;8.77;;
45232;SDS011;30969;51.052;17.056;2022-12-24T19:31:54;17.15;;;8.25;;
45232;SDS011;30969;51.052;17.056;2022-12-24T19:36:57;16.40;;;8.18;;
45232;SDS011;30969;51.052;17.056;2022-12-24T19:42:02;16.75;;;9.25;;
45232;SDS011;30969;51.052;17.056;2022-12-24T19:47:06;17.83;;;8.80;;
45232;SDS011;30969;51.052;17.056;2022-12-24T19:52:09;17.08;;;9.35;;
45232;SDS011;30969;51.052;17.056;2022-12-24T19:57:14;17.05;;;9.15;;
45232;SDS011;30969;51.052;17.056;2022-12-24T20:02:18;21.27;;;9.35;;
45232;SDS011;30969;51.052;17.056;2022-12-24T20:07:21;19.58;;;9.50;;
45232;SDS011;30969;51.052;17.056;2022-12-24T20:12:26;18.45;;;8.95;;
45232;SDS011;30969;51.052;17.056;2022-12-24T20:17:30;20.10;;;9.75;;
45232;SDS011;30969;51.052;17.056;2022-12-24T20:22:33;23.52;;;10.65;;
45232;SDS011;30969;51.052;17.056;2022-12-24T20:27:38;24.15;;;10.93;;
45232;SDS011;30969;51.052;17.056;2022-12-24T20:32:42;18.38;;;11.23;;
45232;SDS011;30969;51.052;17.056;2022-12-24T20:37:45;26.02;;;11.70;;
45232;SDS011;30969;51.052;17.056;2022-12-24T20:42:51;34.13;;;15.23;;
45232;SDS011;30969;51.052;17.056;2022-12-24T20:47:55;38.88;;;20.02;;
45232;SDS011;30969;51.052;17.056;2022-12-24T20:52:59;49.65;;;23.52;;
45232;SDS011;30969;51.052;17.056;2022-12-24T20:58:04;37.88;;;18.95;;
45232;SDS011;30969;51.052;17.056;2022-12-24T21:03:08;23.30;;;10.75;;
45232;SDS011;30969;51.052;17.056;2022-12-24T21:08:12;18.58;;;9.98;;
45232;SDS011;30969;51.052;17.056;2022-12-24T21:13:17;13.73;;;7.50;;
45232;SDS011;30969;51.052;17.056;2022-12-24T21:18:21;20.15;;;7.85;;
45232;SDS011;30969;51.052;17.056;2022-12-24T21:23:24;15.88;;;7.43;;
45232;SDS011;30969;51.052;17.056;2022-12-24T21:28:29;16.77;;;7.85;;
45232;SDS011;30969;51.052;17.056;2022-12-24T21:33:33;20.55;;;8.13;;
45232;SDS011;30969;51.052;17.056;2022-12-24T21:38:39;15.45;;;8.10;;
45232;SDS011;30969;51.052;17.056;2022-12-24T21:43:44;16.02;;;7.45;;
45232;SDS011;30969;51.052;17.056;2022-12-24T21:48:48;15.32;;;6.57;;
45232;SDS011;30969;51.052;17.056;2022-12-24T21:54:10;11.00;;;5.18;;
45232;SDS011;30969;51.052;17.056;2022-12-24T21:59:29;13.18;;;5.47;;
45232;SDS011;30969;51.052;17.056;2022-12-24T22:04:33;10.70;;;6.05;;
45232;SDS011;30969;51.052;17.056;2022-12-24T22:09:37;10.52;;;4.90;;
45232;SDS011;30969;51.052;17.056;2022-12-24T22:14:59;12.45;;;6.47;;
45232;SDS011;30969;51.052;17.056;2022-12-24T22:20:03;11.77;;;6.25;;
45232;SDS011;30969;51.052;17.056;2022-12-24T22:25:08;12.13;;;5.97;;
45232;SDS011;30969;51.052;17.056;2022-12-24T22:30:12;12.07;;;6.28;;
45232;SDS011;30969;51.052;17.056;2022-12-24T22:35:16;9.40;;;4.97;;
45232;SDS011;30969;51.052;17.056;2022-12-24T22:40:20;13.48;;;5.25;;
45232;SDS011;30969;51.052;17.056;2022-12-24T22:45:25;8.70;;;4.93;;
45232;SDS011;30969;51.052;17.056;2022-12-24T22:50:28;7.90;;;4.28;;
45232;SDS011;30969;51.052;17.056;2022-12-24T22:55:32;8.20;;;3.55;;
45232;SDS011;30969;51.052;17.056;2022-12-24T23:00:38;8.82;;;4.55;;
45232;SDS011;30969;51.052;17.056;2022-12-24T23:05:44;7.97;;;4.82;;
45232;SDS011;30969;51.052;17.056;2022-12-24T23:10:47;9.93;;;5.32;;
45232;SDS011;30969;51.052;17.056;2022-12-24T23:15:52;8.68;;;5.32;;
45232;SDS011;30969;51.052;17.056;2022-12-24T23:20:56;13.75;;;5.72;;
45232;SDS011;30969;51.052;17.056;2022-12-24T23:26:03;12.32;;;5.50;;
45232;SDS011;30969;51.052;17.056;2022-12-24T23:31:08;10.00;;;4.72;;
45232;SDS011;30969;51.052;17.056;2022-12-24T23:36:12;8.60;;;5.03;;
45232;SDS011;30969;51.052;17.056;2022-12-24T23:41:16;9.40;;;4.35;;
45232;SDS011;30969;51.052;17.056;2022-12-24T23:46:21;8.88;;;4.05;;
45232;SDS011;30969;51.052;17.056;2022-12-24T23:51:25;10.20;;;4.63;;
45232;SDS011;30969;51.052;17.056;2022-12-24T23:56:29;8.50;;;4.45;;
